Time;durP1;ratioP1;P1;durP2;ratioP2;P2;SDS_P1;SDS_P2;PMS_P1;PMS_P2;Temp;Humidity;BMP_temperature;BMP_pressure;BME280_temperature;BME280_humidity;BME280_pressure;Samples;Min_cycle;Max_cycle;Signal;HPM_P1;HPM_P2
2023/08/28 00:01:03;;;;;;;17.92;6.18;;;24.10;65.50;;;;;;5032067;28;20097;-51
2023/08/28 00:03:29;;;;;;;14.70;5.20;;;24.20;65.30;;;;;;5035875;28;20029;-53
2023/08/28 00:05:55;;;;;;;18.05;5.38;;;24.10;65.10;;;;;;5031044;28;20030;-49
2023/08/28 00:08:21;;;;;;;14.63;4.93;;;24.20;65.30;;;;;;5029485;28;20056;-51
2023/08/28 00:10:47;;;;;;;13.65;5.50;;;24.20;65.50;;;;;;5033252;28;20045;-55
2023/08/28 00:13:13;;;;;;;17.70;5.47;;;24.20;65.30;;;;;;5032351;28;20041;-55
2023/08/28 00:15:38;;;;;;;18.60;5.57;;;24.10;65.00;;;;;;5031074;28;20061;-50
2023/08/28 00:18:04;;;;;;;14.85;5.22;;;24.20;65.30;;;;;;5031597;28;20036;-52
2023/08/28 00:20:30;;;;;;;13.77;4.82;;;24.20;65.80;;;;;;5031978;28;20104;-54
2023/08/28 00:22:56;;;;;;;14.02;5.07;;;24.10;64.90;;;;;;5038202;28;20031;-52
2023/08/28 00:25:22;;;;;;;13.40;4.70;;;24.20;65.10;;;;;;5019843;28;20120;-52
2023/08/28 00:27:47;;;;;;;22.33;5.13;;;24.20;64.90;;;;;;5032418;28;20457;-50
2023/08/28 00:30:13;;;;;;;14.18;4.65;;;24.20;65.20;;;;;;5030863;28;20076;-52
2023/08/28 00:32:39;;;;;;;9.27;2.80;;;24.20;64.30;;;;;;5013826;28;20034;-48
2023/08/28 00:35:05;;;;;;;5.75;2.33;;;24.00;60.70;;;;;;5031273;28;20037;-53
2023/08/28 00:37:32;;;;;;;4.60;1.90;;;23.90;59.70;;;;;;5030750;28;20022;-51
2023/08/28 00:39:57;;;;;;;4.57;1.85;;;23.80;60.00;;;;;;5030436;28;20424;-49
2023/08/28 00:42:24;;;;;;;5.97;1.80;;;23.60;58.90;;;;;;5020686;28;20029;-54
2023/08/28 00:44:50;;;;;;;3.88;1.48;;;23.50;57.80;;;;;;5020288;28;20029;-55
2023/08/28 00:47:17;;;;;;;3.35;1.70;;;23.50;58.30;;;;;;5030501;28;20029;-53
2023/08/28 00:49:43;;;;;;;1.63;1.35;;;23.40;58.20;;;;;;5012909;28;20036;-50
2023/08/28 00:52:10;;;;;;;4.97;1.50;;;23.40;57.70;;;;;;5031185;28;20037;-55
2023/08/28 00:54:39;;;;;;;2.78;1.40;;;23.30;57.40;;;;;;5021184;28;20420;-53
2023/08/28 00:57:06;;;;;;;2.92;1.30;;;23.30;56.80;;;;;;5016008;28;20400;-52
2023/08/28 00:59:33;;;;;;;3.53;1.48;;;23.20;56.60;;;;;;5030214;28;20033;-55
2023/08/28 01:01:58;;;;;;;3.88;1.33;;;23.20;57.30;;;;;;5013299;28;20032;-53
2023/08/28 01:04:24;;;;;;;4.85;1.40;;;23.10;56.70;;;;;;5013247;28;20038;-49
2023/08/28 01:07:13;;;;;;;5.40;1.40;;;23.20;57.10;;;;;;5013689;28;20025;-56
2023/08/28 01:10:09;;;;;;;3.55;1.42;;;23.30;57.30;;;;;;5025964;28;20033;-54
2023/08/28 01:12:41;;;;;;;6.97;1.58;;;23.40;57.40;;;;;;5038404;28;20496;-53
2023/08/28 01:15:24;;;;;;;5.25;1.50;;;23.50;57.50;;;;;;5034068;28;20017;-53
2023/08/28 01:17:58;;;;;;;5.25;1.50;;;23.60;57.70;;;;;;5030131;28;20025;-54
2023/08/28 01:20:27;;;;;;;6.85;1.85;;;23.60;57.60;;;;;;5010600;28;20052;-49
2023/08/28 01:23:32;;;;;;;3.90;1.50;;;23.60;57.90;;;;;;5037425;28;20112;-54
2023/08/28 01:25:59;;;;;;;5.82;1.40;;;23.70;57.70;;;;;;5025628;28;20038;-56
2023/08/28 01:28:25;;;;;;;3.58;1.25;;;23.60;57.80;;;;;;5019517;28;20080;-50
2023/08/28 01:30:53;;;;;;;3.72;1.60;;;23.60;57.00;;;;;;5029958;28;20113;-50
2023/08/28 01:33:19;;;;;;;3.35;1.67;;;23.50;57.50;;;;;;5016936;28;20052;-52
2023/08/28 01:36:11;;;;;;;4.00;1.10;;;23.60;57.60;;;;;;5013052;28;20064;-51
2023/08/28 01:38:57;;;;;;;3.25;1.40;;;23.50;57.80;;;;;;5025588;28;20021;-54
2023/08/28 01:41:25;;;;;;;1.98;1.30;;;23.50;57.40;;;;;;5030049;28;20029;-51
2023/08/28 01:43:57;;;;;;;4.30;1.40;;;23.50;57.40;;;;;;5030697;28;20030;-46
2023/08/28 01:46:24;;;;;;;1.95;1.35;;;23.50;57.30;;;;;;5018261;28;20484;-49
2023/08/28 01:48:53;;;;;;;3.42;1.30;;;23.50;57.20;;;;;;5001624;28;20044;-46
2023/08/28 01:51:20;;;;;;;3.47;1.17;;;23.50;57.50;;;;;;5024189;28;20026;-49
2023/08/28 01:53:47;;;;;;;5.55;1.33;;;23.50;57.60;;;;;;5012112;28;20405;-50
2023/08/28 01:56:19;;;;;;;3.42;1.13;;;23.50;57.20;;;;;;5022584;28;20107;-46
2023/08/28 01:58:53;;;;;;;3.13;1.23;;;23.50;57.10;;;;;;5030253;28;20037;-47
2023/08/28 02:01:21;;;;;;;3.25;1.40;;;23.50;57.20;;;;;;5020550;28;20033;-48
2023/08/28 02:03:46;;;;;;;2.30;1.20;;;23.50;57.20;;;;;;5018273;28;20030;-52
2023/08/28 02:06:12;;;;;;;5.15;1.40;;;23.50;57.00;;;;;;5016490;28;20037;-47
2023/08/28 02:08:38;;;;;;;5.97;1.52;;;23.40;56.80;;;;;;5031894;28;20026;-46
2023/08/28 02:11:05;;;;;;;3.45;1.45;;;23.40;57.00;;;;;;5019023;28;20033;-47
2023/08/28 02:13:31;;;;;;;3.92;1.52;;;23.50;57.00;;;;;;5015967;28;20033;-47
2023/08/28 02:15:57;;;;;;;3.35;1.30;;;23.40;56.70;;;;;;5032947;28;20461;-46
2023/08/28 02:18:23;;;;;;;2.20;1.38;;;23.40;56.80;;;;;;5033963;28;20025;-46
2023/08/28 02:20:49;;;;;;;2.58;1.40;;;23.50;57.00;;;;;;5015477;28;20030;-49
2023/08/28 02:23:14;;;;;;;2.92;1.25;;;23.40;56.50;;;;;;5018271;28;20497;-46
2023/08/28 02:25:42;;;;;;;4.80;1.40;;;23.40;56.70;;;;;;5026266;28;20063;-50
2023/08/28 02:28:07;;;;;;;5.13;1.45;;;23.40;56.80;;;;;;5035998;28;20056;-46
2023/08/28 02:30:33;;;;;;;1.90;1.30;;;23.40;56.60;;;;;;5033358;28;20084;-46
2023/08/28 02:32:59;;;;;;;4.13;1.30;;;23.40;56.60;;;;;;5042256;28;20025;-49
2023/08/28 02:35:26;;;;;;;4.07;1.38;;;23.40;56.70;;;;;;5032249;28;20026;-48
2023/08/28 02:37:52;;;;;;;1.92;1.30;;;23.40;56.80;;;;;;5015862;28;20584;-51
2023/08/28 02:40:18;;;;;;;2.42;1.25;;;23.40;56.70;;;;;;5033489;28;20025;-51
2023/08/28 02:42:44;;;;;;;4.65;1.20;;;23.30;56.70;;;;;;5018231;28;20484;-50
2023/08/28 02:45:10;;;;;;;2.20;1.30;;;23.30;56.50;;;;;;5013999;28;20509;-50
2023/08/28 02:47:36;;;;;;;6.45;1.50;;;23.40;56.60;;;;;;5016963;28;20021;-50
2023/08/28 02:50:04;;;;;;;4.65;1.55;;;23.30;56.60;;;;;;5017660;28;20021;-49
2023/08/28 02:52:30;;;;;;;2.53;1.20;;;23.40;56.70;;;;;;5015130;28;20022;-48
2023/08/28 02:54:56;;;;;;;3.28;1.25;;;23.40;56.90;;;;;;5032994;28;20035;-50
2023/08/28 02:57:22;;;;;;;6.70;1.77;;;23.40;56.80;;;;;;5032193;28;20022;-52
2023/08/28 02:59:48;;;;;;;4.72;1.50;;;23.30;56.60;;;;;;5033665;28;20029;-49
2023/08/28 03:02:13;;;;;;;4.32;1.52;;;23.30;56.80;;;;;;5020163;28;20025;-51
2023/08/28 03:04:42;;;;;;;5.05;1.50;;;23.30;56.80;;;;;;5016759;28;20397;-48
2023/08/28 03:07:08;;;;;;;3.33;1.13;;;23.30;56.70;;;;;;5021903;28;20030;-52
2023/08/28 03:09:34;;;;;;;7.32;1.50;;;23.30;56.70;;;;;;5015234;28;20033;-49
2023/08/28 03:12:00;;;;;;;3.13;1.20;;;23.30;56.80;;;;;;5031807;28;20091;-48
2023/08/28 03:14:26;;;;;;;4.72;1.50;;;23.30;56.70;;;;;;5014983;28;20511;-51
2023/08/28 03:16:52;;;;;;;3.88;1.38;;;23.20;56.60;;;;;;5028840;28;20022;-54
2023/08/28 03:19:18;;;;;;;2.75;1.52;;;23.20;56.50;;;;;;5027621;28;20585;-56
2023/08/28 03:21:44;;;;;;;4.88;1.63;;;23.20;56.80;;;;;;5023048;28;20032;-56
2023/08/28 03:24:10;;;;;;;4.35;1.45;;;23.20;56.90;;;;;;5047098;28;20037;-56
2023/08/28 03:26:35;;;;;;;2.65;1.20;;;23.20;56.40;;;;;;5019813;28;20029;-56
2023/08/28 03:29:01;;;;;;;2.85;1.38;;;23.20;56.50;;;;;;5032640;28;20184;-54
2023/08/28 03:31:27;;;;;;;2.78;1.50;;;23.20;56.30;;;;;;5038053;28;20025;-55
2023/08/28 03:33:53;;;;;;;1.90;1.20;;;23.20;56.30;;;;;;5036301;28;20033;-56
2023/08/28 03:36:19;;;;;;;3.03;1.30;;;23.10;56.30;;;;;;5016903;28;20112;-52
2023/08/28 03:38:45;;;;;;;2.78;1.40;;;23.20;56.50;;;;;;5030238;28;20228;-51
2023/08/28 03:41:11;;;;;;;3.78;1.50;;;23.10;56.40;;;;;;5014576;28;20558;-53
2023/08/28 03:43:37;;;;;;;2.17;1.42;;;23.10;56.30;;;;;;5032113;28;20029;-52
2023/08/28 03:46:03;;;;;;;4.30;1.77;;;23.10;56.50;;;;;;5015812;28;20025;-50
2023/08/28 03:48:29;;;;;;;4.10;1.60;;;23.10;56.60;;;;;;5014275;28;20514;-50
2023/08/28 03:50:55;;;;;;;6.82;1.83;;;23.10;56.60;;;;;;5037819;28;20099;-53
2023/08/28 03:53:21;;;;;;;3.90;1.67;;;23.10;56.70;;;;;;5017082;28;20037;-54
2023/08/28 03:55:48;;;;;;;3.97;1.40;;;23.10;56.40;;;;;;5025387;28;20523;-52
2023/08/28 03:58:16;;;;;;;5.47;1.88;;;23.10;56.60;;;;;;5035283;28;20041;-52
2023/08/28 04:00:42;;;;;;;6.47;1.60;;;23.10;56.40;;;;;;5017934;28;20021;-53
2023/08/28 04:03:08;;;;;;;4.15;1.70;;;23.10;56.40;;;;;;5020068;28;20035;-49
2023/08/28 04:05:39;;;;;;;3.63;2.00;;;23.10;56.30;;;;;;5032104;28;20038;-51
2023/08/28 04:08:05;;;;;;;5.78;1.80;;;23.10;56.10;;;;;;5037318;28;20026;-47
2023/08/28 04:10:31;;;;;;;3.63;1.80;;;23.00;55.90;;;;;;5017712;28;20086;-48
2023/08/28 04:12:58;;;;;;;5.65;1.80;;;23.00;56.10;;;;;;5014144;28;20033;-56
2023/08/28 04:15:24;;;;;;;2.97;1.60;;;23.00;56.10;;;;;;5031526;28;20401;-56
2023/08/28 04:17:50;;;;;;;7.10;1.88;;;23.00;56.00;;;;;;5031769;28;20075;-54
2023/08/28 04:20:16;;;;;;;4.28;1.92;;;23.00;55.90;;;;;;5031528;28;20438;-53
2023/08/28 04:22:46;;;;;;;4.40;1.92;;;23.00;55.80;;;;;;5031636;28;20029;-51
2023/08/28 04:25:13;;;;;;;6.32;2.72;;;23.00;56.00;;;;;;5031202;28;20037;-47
2023/08/28 04:27:40;;;;;;;8.10;2.60;;;23.00;55.90;;;;;;5037332;28;20025;-51
2023/08/28 04:30:08;;;;;;;4.18;2.20;;;23.00;55.90;;;;;;5033087;28;20196;-54
2023/08/28 04:32:35;;;;;;;4.80;2.30;;;23.00;55.90;;;;;;5016182;28;20163;-50
2023/08/28 04:35:01;;;;;;;3.45;2.10;;;23.00;56.20;;;;;;5013511;28;20117;-52
2023/08/28 04:37:27;;;;;;;5.15;2.20;;;23.00;55.90;;;;;;5015853;28;20401;-54
2023/08/28 04:39:53;;;;;;;6.30;2.13;;;23.00;55.90;;;;;;5032619;28;20039;-53
2023/08/28 04:42:19;;;;;;;4.50;2.13;;;23.00;55.80;;;;;;5015416;28;20021;-54
2023/08/28 04:44:46;;;;;;;4.63;2.13;;;23.00;55.80;;;;;;5013533;28;20083;-48
2023/08/28 04:47:15;;;;;;;5.43;1.92;;;22.90;55.80;;;;;;5030369;28;20452;-53
2023/08/28 04:49:41;;;;;;;4.82;2.13;;;22.90;55.80;;;;;;5016085;28;20029;-48
2023/08/28 04:52:07;;;;;;;5.95;2.10;;;22.90;55.70;;;;;;5018314;28;20029;-48
2023/08/28 04:54:33;;;;;;;7.43;2.15;;;22.90;55.70;;;;;;5030872;28;20026;-50
2023/08/28 04:56:59;;;;;;;4.72;2.08;;;22.90;56.40;;;;;;5030742;28;20070;-50
2023/08/28 04:59:26;;;;;;;4.45;2.10;;;22.90;55.90;;;;;;5031160;28;20600;-47
2023/08/28 05:01:52;;;;;;;5.15;2.08;;;22.90;55.70;;;;;;5018153;28;20637;-48
2023/08/28 05:04:17;;;;;;;4.82;2.15;;;22.90;55.70;;;;;;5017910;28;20022;-52
2023/08/28 05:06:44;;;;;;;7.30;2.15;;;22.90;55.90;;;;;;5030313;28;20099;-49
2023/08/28 05:09:12;;;;;;;6.50;2.30;;;22.90;56.00;;;;;;5013660;28;20064;-50
2023/08/28 05:11:38;;;;;;;6.47;2.10;;;22.90;55.80;;;;;;5031175;28;20057;-50
2023/08/28 05:14:04;;;;;;;7.22;2.40;;;23.00;55.80;;;;;;5014987;28;20069;-50
2023/08/28 05:16:30;;;;;;;9.98;2.75;;;22.90;55.80;;;;;;5016074;28;20437;-49
2023/08/28 05:18:56;;;;;;;10.10;2.60;;;22.90;55.70;;;;;;5029120;28;20079;-52
2023/08/28 05:21:21;;;;;;;9.40;2.72;;;22.90;55.90;;;;;;5018619;28;20013;-49
2023/08/28 05:23:47;;;;;;;9.25;2.40;;;22.90;56.00;;;;;;5014613;28;20377;-50
2023/08/28 05:26:13;;;;;;;4.65;2.20;;;22.80;55.70;;;;;;5013218;28;20033;-52
2023/08/28 05:28:40;;;;;;;7.32;2.05;;;22.80;56.00;;;;;;5018286;28;20040;-52
2023/08/28 05:31:06;;;;;;;7.25;2.30;;;22.80;56.00;;;;;;5018277;28;20021;-48
2023/08/28 05:33:33;;;;;;;5.75;2.30;;;22.80;55.80;;;;;;5014099;28;20116;-47
2023/08/28 05:35:59;;;;;;;8.38;2.33;;;22.80;55.80;;;;;;5035412;28;20027;-51
2023/08/28 05:38:25;;;;;;;3.50;1.90;;;22.90;56.00;;;;;;5017079;28;20167;-50
2023/08/28 05:40:51;;;;;;;5.32;2.08;;;22.90;55.90;;;;;;5034650;28;20527;-52
2023/08/28 05:43:17;;;;;;;9.52;2.10;;;22.90;56.60;;;;;;5031501;28;20392;-51
2023/08/28 05:45:48;;;;;;;8.70;2.28;;;22.90;56.30;;;;;;5023342;28;20060;-48
2023/08/28 05:48:13;;;;;;;5.95;1.90;;;23.00;56.00;;;;;;5017534;28;20029;-47
2023/08/28 05:50:43;;;;;;;4.30;2.08;;;23.00;55.80;;;;;;5016964;28;20033;-48
2023/08/28 05:53:09;;;;;;;6.05;2.88;;;23.10;55.80;;;;;;5033251;28;20377;-48
2023/08/28 05:55:35;;;;;;;5.45;2.17;;;23.10;55.80;;;;;;5019530;28;20079;-47
2023/08/28 05:58:01;;;;;;;7.20;2.42;;;23.10;55.80;;;;;;5016805;28;20026;-47
2023/08/28 06:00:28;;;;;;;5.03;2.25;;;23.10;55.80;;;;;;5017807;28;20036;-47
2023/08/28 06:02:54;;;;;;;10.63;2.85;;;23.10;55.90;;;;;;5034324;28;20075;-47
2023/08/28 06:05:21;;;;;;;9.02;2.60;;;23.10;55.90;;;;;;5016552;28;20036;-47
2023/08/28 06:07:47;;;;;;;5.90;2.45;;;23.10;55.90;;;;;;5016743;28;20104;-48
2023/08/28 06:10:17;;;;;;;5.72;2.40;;;23.10;55.80;;;;;;5017239;28;20033;-54
2023/08/28 06:12:44;;;;;;;7.82;3.08;;;23.10;55.90;;;;;;5021129;28;20449;-53
2023/08/28 06:15:13;;;;;;;4.85;2.78;;;23.10;55.90;;;;;;5016120;28;20025;-47
2023/08/28 06:17:39;;;;;;;7.17;2.40;;;23.10;55.80;;;;;;5001706;28;20071;-50
2023/08/28 06:20:09;;;;;;;8.68;2.67;;;23.10;55.90;;;;;;5016285;28;20268;-48
2023/08/28 06:22:36;;;;;;;10.73;2.45;;;23.10;56.00;;;;;;5046403;28;20516;-45
2023/08/28 06:25:03;;;;;;;10.30;2.60;;;23.10;56.20;;;;;;5005017;28;20176;-47
2023/08/28 06:27:30;;;;;;;9.40;2.45;;;23.10;55.70;;;;;;5015200;28;20040;-46
2023/08/28 06:29:56;;;;;;;8.43;2.28;;;23.10;55.70;;;;;;5016146;28;20033;-48
2023/08/28 06:32:22;;;;;;;9.20;2.50;;;23.10;55.70;;;;;;5033807;28;20037;-47
2023/08/28 06:34:47;;;;;;;7.93;2.78;;;23.10;56.20;;;;;;5037751;28;20028;-47
2023/08/28 06:37:13;;;;;;;8.90;3.17;;;23.10;56.10;;;;;;5033610;28;20381;-47
2023/08/28 06:39:39;;;;;;;7.82;2.47;;;23.10;56.00;;;;;;5033773;28;20029;-48
2023/08/28 06:42:05;;;;;;;12.52;3.05;;;23.20;56.40;;;;;;5033414;28;20022;-49
2023/08/28 06:44:34;;;;;;;9.02;2.70;;;23.20;56.00;;;;;;5016964;28;20396;-47
2023/08/28 06:47:00;;;;;;;12.57;2.97;;;23.20;56.20;;;;;;5033216;28;20035;-47
2023/08/28 06:49:26;;;;;;;4.75;2.67;;;23.20;56.10;;;;;;5033947;28;20034;-46
2023/08/28 06:51:51;;;;;;;12.50;2.40;;;23.20;56.70;;;;;;5033511;28;20025;-47
2023/08/28 06:54:17;;;;;;;6.20;2.55;;;23.20;56.60;;;;;;5033197;28;20068;-45
2023/08/28 06:56:43;;;;;;;8.35;2.63;;;23.10;56.70;;;;;;5031790;28;20040;-46
2023/08/28 06:59:09;;;;;;;6.88;2.75;;;22.90;55.80;;;;;;5032856;28;20308;-47
2023/08/28 07:01:35;;;;;;;9.50;2.50;;;22.90;56.30;;;;;;5031849;28;20030;-47
2023/08/28 07:04:00;;;;;;;7.38;2.28;;;22.90;56.40;;;;;;5032909;28;20041;-49
2023/08/28 07:06:26;;;;;;;7.07;2.28;;;23.00;56.40;;;;;;5032473;28;20026;-48
2023/08/28 07:08:52;;;;;;;10.52;2.00;;;23.10;56.40;;;;;;5041332;28;20048;-49
2023/08/28 07:11:18;;;;;;;13.10;2.88;;;23.10;56.60;;;;;;5053361;22;20116;-48
2023/08/28 07:13:43;;;;;;;11.65;2.40;;;23.20;57.20;;;;;;5069085;28;20035;-45
2023/08/28 07:16:09;;;;;;;11.98;2.30;;;23.20;57.50;;;;;;5071919;28;20017;-51
2023/08/28 07:18:35;;;;;;;10.77;2.72;;;23.20;57.30;;;;;;5070332;28;20040;-49
2023/08/28 07:21:01;;;;;;;19.70;2.50;;;23.20;56.80;;;;;;5069864;28;20373;-47
2023/08/28 07:23:27;;;;;;;15.30;1.92;;;23.10;57.10;;;;;;5079850;28;20064;-49
2023/08/28 07:25:53;;;;;;;8.02;2.17;;;23.00;56.40;;;;;;5089690;28;20559;-50
2023/08/28 07:28:20;;;;;;;10.45;2.28;;;22.90;56.70;;;;;;5093082;28;20028;-49
2023/08/28 07:30:46;;;;;;;4.35;1.75;;;22.70;56.50;;;;;;5093085;28;20032;-49
2023/08/28 07:33:12;;;;;;;8.52;2.13;;;22.60;56.80;;;;;;5092657;28;20139;-48
2023/08/28 07:35:41;;;;;;;5.43;1.80;;;22.60;56.50;;;;;;5093051;28;20498;-48
2023/08/28 07:38:07;;;;;;;8.40;1.88;;;22.60;56.80;;;;;;5093121;28;20027;-49
2023/08/28 07:40:34;;;;;;;8.93;2.22;;;22.60;56.20;;;;;;5092859;28;20024;-47
2023/08/28 07:43:00;;;;;;;7.32;1.58;;;22.50;57.00;;;;;;5092705;28;20028;-49
2023/08/28 07:45:26;;;;;;;6.18;1.75;;;22.50;55.90;;;;;;5092534;28;20031;-46
2023/08/28 07:47:52;;;;;;;5.88;1.65;;;22.30;56.30;;;;;;5092738;28;20020;-47
2023/08/28 07:50:18;;;;;;;6.75;1.88;;;22.30;56.50;;;;;;5092735;28;20394;-45
2023/08/28 07:52:44;;;;;;;6.18;1.75;;;22.20;56.50;;;;;;5092605;28;20265;-48
2023/08/28 07:55:10;;;;;;;4.63;1.60;;;22.40;56.40;;;;;;5092189;28;20066;-44
2023/08/28 07:57:35;;;;;;;5.82;1.88;;;22.30;56.60;;;;;;5092382;28;20495;-44
2023/08/28 08:00:10;;;;;;;3.47;1.50;;;21.90;57.30;;;;;;5092068;28;20036;-43
2023/08/28 08:02:39;;;;;;;3.88;1.73;;;22.10;57.40;;;;;;5092471;28;20016;-43
2023/08/28 08:05:05;;;;;;;3.38;1.70;;;22.10;57.50;;;;;;5092233;28;20077;-47
2023/08/28 08:07:32;;;;;;;6.10;2.25;;;22.10;57.00;;;;;;5092338;28;20052;-52
2023/08/28 08:09:58;;;;;;;6.47;2.42;;;22.10;57.10;;;;;;5092317;28;20024;-48
2023/08/28 08:12:26;;;;;;;7.43;2.20;;;22.20;56.80;;;;;;5101601;28;20407;-49
2023/08/28 08:14:52;;;;;;;6.57;2.30;;;22.00;56.90;;;;;;5093660;28;20047;-52
2023/08/28 08:17:18;;;;;;;9.40;2.80;;;22.10;56.90;;;;;;5112534;28;20024;-45
2023/08/28 08:19:44;;;;;;;6.38;2.42;;;22.20;56.80;;;;;;5112570;28;20030;-48
2023/08/28 08:22:11;;;;;;;6.70;2.05;;;22.20;56.80;;;;;;5112374;28;20027;-46
2023/08/28 08:24:37;;;;;;;7.53;2.10;;;22.30;56.80;;;;;;5112150;28;20509;-43
2023/08/28 08:27:04;;;;;;;8.80;2.17;;;22.40;56.60;;;;;;5112354;28;20032;-44
2023/08/28 08:29:29;;;;;;;9.00;2.35;;;22.30;56.50;;;;;;5112456;28;20042;-48
2023/08/28 08:31:56;;;;;;;4.57;2.00;;;22.30;56.30;;;;;;5112271;28;20035;-44
2023/08/28 08:34:22;;;;;;;10.45;1.92;;;22.40;56.50;;;;;;5112426;28;20064;-43
2023/08/28 08:36:47;;;;;;;8.13;2.13;;;22.40;56.20;;;;;;5112263;28;20051;-44
2023/08/28 08:39:13;;;;;;;4.00;1.95;;;22.30;56.30;;;;;;5112208;28;20030;-44
2023/08/28 08:41:39;;;;;;;7.30;2.08;;;22.40;56.50;;;;;;5112277;28;20051;-43
2023/08/28 08:44:06;;;;;;;6.43;2.00;;;22.40;56.80;;;;;;5111917;28;20157;-43
2023/08/28 08:46:33;;;;;;;4.00;1.95;;;22.40;56.30;;;;;;5112128;28;20436;-43
2023/08/28 08:49:00;;;;;;;7.90;2.05;;;22.40;56.30;;;;;;5112075;28;20038;-43
2023/08/28 08:51:30;;;;;;;5.30;1.45;;;22.50;56.40;;;;;;5111908;28;20023;-45
2023/08/28 08:54:04;;;;;;;5.90;1.90;;;22.50;56.80;;;;;;5111598;28;20571;-43
2023/08/28 08:56:36;;;;;;;6.53;1.80;;;22.60;56.00;;;;;;5112024;28;20027;-43
2023/08/28 08:59:03;;;;;;;4.82;1.58;;;22.70;55.90;;;;;;5111987;28;20032;-44
2023/08/28 09:01:30;;;;;;;10.13;1.77;;;22.60;55.70;;;;;;5111950;28;20019;-47
2023/08/28 09:03:58;;;;;;;4.00;1.70;;;22.70;55.60;;;;;;5111686;28;20039;-49
2023/08/28 09:06:28;;;;;;;3.25;1.35;;;22.70;55.60;;;;;;5111904;28;20402;-52
2023/08/28 09:08:55;;;;;;;6.43;1.58;;;22.70;55.40;;;;;;5094063;28;20398;-49
2023/08/28 09:11:20;;;;;;;7.00;1.60;;;22.70;55.40;;;;;;5115611;28;20031;-45
2023/08/28 09:13:46;;;;;;;5.82;1.73;;;22.70;55.50;;;;;;5115738;28;20027;-49
2023/08/28 09:16:12;;;;;;;5.70;1.73;;;22.70;55.50;;;;;;5097077;28;20024;-49
2023/08/28 09:18:38;;;;;;;3.83;1.48;;;22.70;55.70;;;;;;5095867;28;20081;-44
2023/08/28 09:21:08;;;;;;;4.43;1.50;;;22.60;55.60;;;;;;5095544;28;20031;-45
2023/08/28 09:23:34;;;;;;;6.35;2.38;;;22.50;55.40;;;;;;5095386;28;20060;-45
2023/08/28 09:26:02;;;;;;;3.60;1.90;;;22.50;56.00;;;;;;5095854;28;20028;-49
2023/08/28 09:28:28;;;;;;;6.03;2.17;;;22.50;56.40;;;;;;5095486;28;20052;-46
2023/08/28 09:30:54;;;;;;;11.82;2.67;;;22.60;56.40;;;;;;5095306;28;20067;-43
2023/08/28 09:33:20;;;;;;;9.77;2.90;;;22.70;56.60;;;;;;5091391;28;20056;-46
2023/08/28 09:35:46;;;;;;;6.68;2.60;;;22.80;56.90;;;;;;5089002;28;20094;-52
2023/08/28 09:38:12;;;;;;;7.63;2.38;;;22.90;56.20;;;;;;5090188;28;20012;-51
2023/08/28 09:40:40;;;;;;;9.40;2.42;;;22.90;55.90;;;;;;5091453;28;20028;-48
2023/08/28 09:43:12;;;;;;;7.60;2.63;;;23.00;57.20;;;;;;5091357;28;20372;-52
2023/08/28 09:45:40;;;;;;;4.13;2.03;;;23.00;58.10;;;;;;5092085;28;20506;-51
2023/08/28 09:48:07;;;;;;;6.47;2.15;;;23.00;58.30;;;;;;5089345;28;20146;-45
2023/08/28 09:50:38;;;;;;;7.75;1.65;;;23.00;59.20;;;;;;5091241;28;20027;-46
2023/08/28 09:53:15;;;;;;;5.10;1.80;;;23.00;57.90;;;;;;5091452;28;20028;-47
2023/08/28 09:55:52;;;;;;;6.28;1.58;;;23.00;58.40;;;;;;5071655;28;20032;-45
2023/08/28 09:58:18;;;;;;;4.55;2.10;;;23.00;58.20;;;;;;5084916;28;20501;-51
2023/08/28 10:00:45;;;;;;;8.93;2.28;;;23.00;58.00;;;;;;5067281;28;20485;-46
2023/08/28 10:03:12;;;;;;;16.00;2.17;;;23.00;58.00;;;;;;5084021;28;20024;-44
2023/08/28 10:05:40;;;;;;;8.35;1.90;;;23.10;58.50;;;;;;5082350;28;20020;-45
2023/08/28 10:08:13;;;;;;;31.52;3.35;;;23.10;58.50;;;;;;5083629;28;20419;-49
2023/08/28 10:10:45;;;;;;;13.30;2.10;;;23.10;58.50;;;;;;5085656;28;20031;-50
2023/08/28 10:13:14;;;;;;;6.43;2.30;;;23.10;59.10;;;;;;5084766;28;20032;-51
2023/08/28 10:16:05;;;;;;;9.73;2.00;;;23.10;58.90;;;;;;5082518;28;20028;-52
2023/08/28 10:18:52;;;;;;;11.93;2.45;;;23.10;59.00;;;;;;5086173;28;20043;-48
2023/08/28 10:21:20;;;;;;;8.70;1.48;;;23.10;58.80;;;;;;5084437;28;20529;-50
2023/08/28 10:23:49;;;;;;;11.75;2.28;;;23.10;59.20;;;;;;5083115;28;20032;-53
2023/08/28 10:26:15;;;;;;;11.57;1.90;;;23.10;59.00;;;;;;5085903;28;20552;-53
2023/08/28 10:28:42;;;;;;;9.88;2.05;;;23.10;59.20;;;;;;5085901;28;20031;-53
2023/08/28 10:31:10;;;;;;;10.27;1.88;;;23.10;58.60;;;;;;5084333;28;20552;-52
2023/08/28 10:33:36;;;;;;;4.68;1.67;;;23.10;58.70;;;;;;5083259;28;20020;-49
2023/08/28 10:36:04;;;;;;;8.82;2.13;;;23.10;58.40;;;;;;5084518;28;20028;-52
2023/08/28 10:38:30;;;;;;;7.93;1.95;;;23.10;58.50;;;;;;5086947;28;20088;-53
2023/08/28 10:40:58;;;;;;;13.23;2.47;;;23.20;58.50;;;;;;5086922;28;20028;-51
2023/08/28 10:43:26;;;;;;;14.63;2.22;;;23.20;58.70;;;;;;5086048;28;20036;-49
2023/08/28 10:45:56;;;;;;;19.05;2.25;;;23.20;58.40;;;;;;5078472;28;20031;-54
2023/08/28 10:48:21;;;;;;;;;;;23.20;58.40;;;;;;5085619;28;20031;-51
2023/08/28 10:50:47;;;;;;;7.40;1.85;;;23.20;58.50;;;;;;5085095;28;19987;-54
2023/08/28 10:53:14;;;;;;;25.83;2.83;;;23.20;58.30;;;;;;5088184;28;20039;-45
2023/08/28 10:55:54;;;;;;;15.35;2.28;;;23.20;58.80;;;;;;5088702;28;20073;-49
2023/08/28 10:58:21;;;;;;;18.25;2.60;;;23.30;58.70;;;;;;5089172;28;20052;-50
2023/08/28 11:01:10;;;;;;;14.43;2.13;;;23.30;58.30;;;;;;5070358;28;20032;-46
2023/08/28 11:03:58;;;;;;;12.40;2.33;;;23.20;58.50;;;;;;5088044;28;20028;-46
2023/08/28 11:06:43;;;;;;;14.32;2.40;;;23.20;59.00;;;;;;5071133;28;20036;-49
2023/08/28 11:09:27;;;;;;;14.52;2.40;;;23.20;58.60;;;;;;5089231;28;20039;-45
2023/08/28 11:12:02;;;;;;;8.25;2.05;;;23.30;58.80;;;;;;5088071;28;20064;-48
2023/08/28 11:14:33;;;;;;;10.77;1.65;;;23.20;58.70;;;;;;5088842;28;20031;-46
2023/08/28 11:17:05;;;;;;;6.55;1.70;;;23.20;58.40;;;;;;5088904;28;20032;-47
2023/08/28 11:19:31;;;;;;;6.20;1.92;;;23.20;58.70;;;;;;5084997;28;20032;-51
2023/08/28 11:22:00;;;;;;;8.05;1.80;;;23.20;58.60;;;;;;5088666;28;20071;-50
2023/08/28 11:24:26;;;;;;;6.13;1.80;;;23.20;58.60;;;;;;5088981;28;20382;-46
2023/08/28 11:26:52;;;;;;;11.32;2.17;;;23.30;58.50;;;;;;5070889;28;20039;-45
2023/08/28 11:29:32;;;;;;;6.78;1.75;;;23.20;58.50;;;;;;5090888;28;20024;-45
2023/08/28 11:31:58;;;;;;;5.47;1.77;;;23.20;58.30;;;;;;5090603;28;20548;-49
2023/08/28 11:34:24;;;;;;;8.55;1.98;;;23.20;58.60;;;;;;5089322;28;20032;-47
2023/08/28 11:36:50;;;;;;;9.38;1.80;;;23.20;58.30;;;;;;5090635;28;20070;-46
2023/08/28 11:39:23;;;;;;;7.32;1.90;;;23.20;58.30;;;;;;5090551;28;20069;-46
2023/08/28 11:41:50;;;;;;;4.18;1.45;;;23.20;58.30;;;;;;5090565;28;20024;-46
2023/08/28 11:44:16;;;;;;;5.70;1.70;;;23.20;58.30;;;;;;5090191;28;20066;-48
2023/08/28 11:46:42;;;;;;;8.68;2.22;;;23.20;58.50;;;;;;5090561;28;20031;-45
2023/08/28 11:49:09;;;;;;;8.43;2.00;;;23.20;58.50;;;;;;5090459;28;20031;-46
2023/08/28 11:51:36;;;;;;;9.10;2.15;;;23.20;58.20;;;;;;5090328;28;20106;-48
2023/08/28 11:54:03;;;;;;;7.30;1.95;;;23.20;58.10;;;;;;5071730;28;20077;-47
2023/08/28 11:56:33;;;;;;;4.10;1.80;;;23.20;58.10;;;;;;5090340;28;20024;-46
2023/08/28 11:58:59;;;;;;;7.85;2.17;;;23.20;58.10;;;;;;5090169;28;20456;-48
2023/08/28 12:01:27;;;;;;;7.90;1.88;;;23.20;58.10;;;;;;5090197;28;20051;-47
2023/08/28 12:04:00;;;;;;;7.15;2.00;;;23.20;58.10;;;;;;5089973;28;20051;-48
2023/08/28 12:06:29;;;;;;;3.97;1.52;;;23.10;57.90;;;;;;5090214;28;20024;-49
2023/08/28 12:08:55;;;;;;;9.23;2.30;;;23.10;58.20;;;;;;5072157;28;20122;-47
2023/08/28 12:11:21;;;;;;;5.35;1.88;;;23.10;58.00;;;;;;5089757;28;20120;-47
2023/08/28 12:13:46;;;;;;;5.28;2.20;;;23.10;57.90;;;;;;5089778;28;20032;-46
2023/08/28 12:16:20;;;;;;;7.28;2.42;;;23.20;58.00;;;;;;5089846;28;20391;-45
2023/08/28 12:18:51;;;;;;;5.68;2.10;;;23.10;57.90;;;;;;5089674;28;20094;-49
2023/08/28 12:21:19;;;;;;;10.82;2.78;;;23.10;58.10;;;;;;5089042;28;20020;-46
2023/08/28 12:23:55;;;;;;;9.52;2.38;;;23.10;58.50;;;;;;5083154;28;20249;-45
2023/08/28 12:26:26;;;;;;;9.23;2.20;;;23.20;58.60;;;;;;5088443;28;20035;-47
2023/08/28 12:28:56;;;;;;;6.30;2.03;;;23.20;58.60;;;;;;5088754;28;20074;-46
2023/08/28 12:31:31;;;;;;;7.05;2.53;;;23.20;58.90;;;;;;5088581;28;20088;-50
2023/08/28 12:33:57;;;;;;;14.80;2.20;;;23.20;59.10;;;;;;5089374;28;20032;-48
2023/08/28 12:36:37;;;;;;;8.52;2.40;;;23.20;58.70;;;;;;5089745;28;20066;-48
2023/08/28 12:39:04;;;;;;;13.55;2.25;;;23.20;58.70;;;;;;5091201;28;20028;-53
2023/08/28 12:41:36;;;;;;;8.10;2.10;;;23.20;59.30;;;;;;5088880;28;20063;-53
2023/08/28 12:44:03;;;;;;;10.63;2.40;;;23.20;59.00;;;;;;5087483;28;20020;-47
2023/08/28 12:46:29;;;;;;;6.05;2.05;;;23.20;59.30;;;;;;5089547;28;20028;-49
2023/08/28 12:48:55;;;;;;;7.22;2.03;;;23.20;60.80;;;;;;5089482;28;20063;-53